Time;durP1;ratioP1;P1;durP2;ratioP2;P2;SDS_P1;SDS_P2;PMS_P1;PMS_P2;Temp;Humidity;BMP_temperature;BMP_pressure;BME280_temperature;BME280_humidity;BME280_pressure;Samples;Min_cycle;Max_cycle;Signal;HPM_P1;HPM_P2
2023/12/03 00:02:17;;;;;;;24.10;17.60;;;-0.80;99.90;;;;;;5006072;28;20046;-41
2023/12/03 00:04:44;;;;;;;24.52;16.08;;;-0.80;99.90;;;;;;5005815;28;20076;-41
2023/12/03 00:07:10;;;;;;;20.77;16.33;;;-0.80;99.90;;;;;;5010126;28;20180;-43
2023/12/03 00:09:38;;;;;;;23.00;16.27;;;-0.80;99.90;;;;;;5005294;28;20152;-43
2023/12/03 00:12:05;;;;;;;20.88;13.15;;;-0.90;99.90;;;;;;5007343;28;20053;-42
2023/12/03 00:14:31;;;;;;;26.90;16.92;;;-0.90;99.90;;;;;;5006580;28;20585;-42
2023/12/03 00:16:57;;;;;;;26.55;17.48;;;-0.90;99.90;;;;;;5009676;28;20064;-42
2023/12/03 00:19:24;;;;;;;23.88;14.77;;;-0.90;99.90;;;;;;5005913;28;20062;-42
2023/12/03 00:21:50;;;;;;;25.23;16.73;;;-1.00;99.90;;;;;;5003901;28;20639;-43
2023/12/03 00:24:16;;;;;;;22.80;15.82;;;-1.00;99.90;;;;;;5004532;28;20152;-41
2023/12/03 00:26:42;;;;;;;22.98;16.20;;;-1.00;99.90;;;;;;5006324;28;20181;-42
2023/12/03 00:29:07;;;;;;;26.08;13.73;;;-1.00;99.90;;;;;;5008349;28;20054;-43
2023/12/03 00:31:34;;;;;;;24.65;15.55;;;-0.90;99.90;;;;;;4997299;28;20060;-43
2023/12/03 00:34:02;;;;;;;27.60;16.92;;;-0.90;99.90;;;;;;5005185;28;20263;-42
2023/12/03 00:36:28;;;;;;;18.00;14.43;;;-0.90;99.90;;;;;;5008221;28;20495;-42
2023/12/03 00:38:53;;;;;;;22.33;16.30;;;-0.90;99.90;;;;;;5002326;28;20048;-44
2023/12/03 00:41:19;;;;;;;24.60;18.85;;;-0.80;99.90;;;;;;4999499;28;20053;-42
2023/12/03 00:43:44;;;;;;;25.40;22.65;;;-0.80;99.90;;;;;;5003645;28;20050;-42
2023/12/03 00:46:10;;;;;;;29.40;21.67;;;-0.80;99.90;;;;;;5004368;28;20045;-42
2023/12/03 00:48:36;;;;;;;30.92;24.58;;;-0.70;99.90;;;;;;5005039;28;20131;-42
2023/12/03 00:51:01;;;;;;;28.33;23.65;;;-0.60;99.90;;;;;;5002402;28;20061;-42
2023/12/03 00:53:27;;;;;;;29.65;26.52;;;-0.60;99.90;;;;;;5000000;28;20061;-41
2023/12/03 00:55:54;;;;;;;33.28;26.95;;;-0.50;99.90;;;;;;5006133;28;20050;-44
2023/12/03 00:58:20;;;;;;;30.25;26.88;;;-0.50;99.90;;;;;;5001510;28;20400;-42
2023/12/03 01:00:45;;;;;;;38.10;27.80;;;-0.50;99.90;;;;;;5003637;28;20050;-40
2023/12/03 01:03:11;;;;;;;28.83;25.30;;;-0.40;99.90;;;;;;5004351;28;20072;-32
2023/12/03 01:05:37;;;;;;;30.83;25.70;;;-0.50;99.90;;;;;;5007064;28;20078;-34
2023/12/03 01:08:02;;;;;;;32.70;23.95;;;-0.50;99.90;;;;;;5008151;28;20041;-33
2023/12/03 01:10:28;;;;;;;31.13;23.92;;;-0.60;99.90;;;;;;5009446;28;20141;-32
2023/12/03 01:12:54;;;;;;;30.70;22.10;;;-0.60;99.90;;;;;;5012026;28;20054;-33
2023/12/03 01:15:19;;;;;;;32.85;23.40;;;-0.60;99.90;;;;;;5012003;28;20041;-32
2023/12/03 01:17:45;;;;;;;28.75;21.02;;;-0.70;99.90;;;;;;5008746;28;20511;-33
2023/12/03 01:20:11;;;;;;;23.65;18.35;;;-0.70;99.90;;;;;;5010001;28;20057;-33
2023/12/03 01:22:36;;;;;;;25.77;20.35;;;-0.70;99.90;;;;;;5007268;28;20046;-33
2023/12/03 01:25:02;;;;;;;23.42;17.17;;;-0.80;99.90;;;;;;5004895;28;20045;-34
2023/12/03 01:27:28;;;;;;;26.27;18.38;;;-0.80;99.90;;;;;;5010287;28;20076;-33
2023/12/03 01:29:53;;;;;;;26.00;17.90;;;-0.90;99.90;;;;;;5009780;28;20046;-33
2023/12/03 01:32:19;;;;;;;29.60;18.85;;;-0.90;99.90;;;;;;5010287;28;20077;-33
2023/12/03 01:34:45;;;;;;;43.70;19.50;;;-0.90;99.90;;;;;;5009021;28;20470;-32
2023/12/03 01:37:11;;;;;;;112.93;24.50;;;-0.90;99.90;;;;;;5008133;28;20050;-33
2023/12/03 01:39:37;;;;;;;125.70;27.42;;;-0.90;99.90;;;;;;5008180;28;20050;-33
2023/12/03 01:42:03;;;;;;;176.50;31.45;;;-0.90;99.90;;;;;;5010879;28;20137;-38
2023/12/03 01:44:29;;;;;;;151.20;29.40;;;-0.90;99.90;;;;;;5006007;28;20054;-33
2023/12/03 01:46:58;;;;;;;134.88;31.05;;;-0.90;99.90;;;;;;5009445;28;20042;-33
2023/12/03 01:49:24;;;;;;;207.95;37.05;;;-0.80;99.90;;;;;;5006484;28;20066;-33
2023/12/03 01:51:50;;;;;;;144.00;32.95;;;-0.80;99.90;;;;;;5007609;28;20062;-32
2023/12/03 01:54:16;;;;;;;88.25;30.55;;;-0.70;99.90;;;;;;5009038;28;20057;-33
2023/12/03 01:56:41;;;;;;;85.78;32.17;;;-0.70;99.90;;;;;;5008978;28;20428;-33
2023/12/03 01:59:07;;;;;;;53.55;30.98;;;-0.60;99.90;;;;;;5009213;28;20146;-33
2023/12/03 02:01:33;;;;;;;43.67;28.90;;;-0.50;99.90;;;;;;5009121;28;20058;-38
2023/12/03 02:03:58;;;;;;;37.97;30.08;;;-0.50;99.90;;;;;;5003615;28;20046;-33
2023/12/03 02:06:24;;;;;;;54.45;33.63;;;-0.40;99.90;;;;;;5007426;28;20057;-33
2023/12/03 02:08:51;;;;;;;51.95;33.15;;;-0.30;99.90;;;;;;5023275;28;20050;-33
2023/12/03 02:11:17;;;;;;;55.08;33.92;;;-0.20;99.90;;;;;;5007813;28;20181;-33
2023/12/03 02:13:43;;;;;;;50.60;28.65;;;-0.20;99.90;;;;;;5012421;28;20523;-33
2023/12/03 02:16:09;;;;;;;57.95;32.20;;;-0.20;99.90;;;;;;5008246;28;20053;-33
2023/12/03 02:18:35;;;;;;;64.63;33.58;;;-0.10;99.90;;;;;;5004785;28;20124;-34
2023/12/03 02:21:01;;;;;;;61.03;31.80;;;-0.10;99.90;;;;;;5007706;28;20060;-33
2023/12/03 02:23:28;;;;;;;100.68;36.28;;;-0.10;99.90;;;;;;5007692;28;20476;-35
2023/12/03 02:25:53;;;;;;;80.57;33.05;;;0.00;99.90;;;;;;5008870;28;20046;-33
2023/12/03 02:28:19;;;;;;;83.38;30.30;;;0.10;99.90;;;;;;5005995;28;20403;-32
2023/12/03 02:30:45;;;;;;;104.40;35.72;;;0.10;99.90;;;;;;5005911;28;20049;-33
2023/12/03 02:33:10;;;;;;;100.38;35.75;;;0.20;99.90;;;;;;5007806;28;20046;-33
2023/12/03 02:35:36;;;;;;;111.65;41.13;;;0.20;99.90;;;;;;5005170;28;20053;-33
2023/12/03 02:38:01;;;;;;;79.05;32.17;;;0.20;99.90;;;;;;5010222;28;20054;-34
2023/12/03 02:40:32;;;;;;;103.22;41.50;;;0.30;99.90;;;;;;5008663;28;20051;-33
2023/12/03 02:42:59;;;;;;;69.15;31.48;;;0.30;99.90;;;;;;5007056;28;20503;-33
2023/12/03 02:45:25;;;;;;;75.63;31.70;;;0.40;99.90;;;;;;5005805;28;20393;-40
2023/12/03 02:47:50;;;;;;;89.00;39.72;;;0.40;99.90;;;;;;5006379;28;20068;-33
2023/12/03 02:50:16;;;;;;;89.25;40.78;;;0.50;99.90;;;;;;5008959;28;20478;-33
2023/12/03 02:52:41;;;;;;;81.18;39.83;;;0.40;99.90;;;;;;4991216;28;20484;-33
2023/12/03 02:55:08;;;;;;;99.05;43.47;;;0.50;99.90;;;;;;5009254;28;20042;-33
2023/12/03 02:57:37;;;;;;;65.93;31.70;;;0.50;99.90;;;;;;5006394;28;20502;-33
2023/12/03 03:00:04;;;;;;;83.53;40.53;;;0.50;99.90;;;;;;5008308;28;20484;-33
2023/12/03 03:02:31;;;;;;;56.70;28.83;;;0.50;99.90;;;;;;5020839;28;20062;-33
2023/12/03 03:04:57;;;;;;;75.57;35.13;;;0.50;99.90;;;;;;5008138;28;20073;-34
2023/12/03 03:07:22;;;;;;;73.07;32.67;;;0.50;99.90;;;;;;5001564;28;20463;-33
2023/12/03 03:09:48;;;;;;;69.40;35.60;;;0.50;99.90;;;;;;5007832;28;20096;-33
2023/12/03 03:12:14;;;;;;;85.88;39.28;;;0.50;99.90;;;;;;5011424;28;20061;-33
2023/12/03 03:14:39;;;;;;;80.85;38.80;;;0.60;99.90;;;;;;5005321;28;20069;-34
2023/12/03 03:17:05;;;;;;;69.63;34.63;;;0.60;99.90;;;;;;5008404;28;20058;-33
2023/12/03 03:19:30;;;;;;;66.53;33.45;;;0.60;99.90;;;;;;5006371;28;20053;-35
2023/12/03 03:21:56;;;;;;;85.70;36.30;;;0.60;99.90;;;;;;5007761;28;20463;-33
2023/12/03 03:24:22;;;;;;;77.85;35.65;;;0.60;99.90;;;;;;5002015;28;20050;-33
2023/12/03 03:26:47;;;;;;;69.38;34.25;;;0.60;99.90;;;;;;5006625;28;20050;-33
2023/12/03 03:29:13;;;;;;;127.82;43.78;;;0.60;99.90;;;;;;5010275;28;20049;-33
2023/12/03 03:31:39;;;;;;;71.60;27.80;;;0.60;99.90;;;;;;5010356;28;21345;-34
2023/12/03 03:34:05;;;;;;;103.47;37.92;;;0.60;99.90;;;;;;5005069;28;20521;-33
2023/12/03 03:36:30;;;;;;;76.53;29.33;;;0.60;99.90;;;;;;5006653;28;20583;-33
2023/12/03 03:38:56;;;;;;;83.72;32.15;;;0.60;99.90;;;;;;5004832;28;20123;-35
2023/12/03 03:41:22;;;;;;;92.93;37.78;;;0.60;99.90;;;;;;5007411;28;20046;-33
2023/12/03 03:43:48;;;;;;;89.47;37.58;;;0.70;99.90;;;;;;5005346;28;20054;-33
2023/12/03 03:46:14;;;;;;;90.68;34.83;;;0.60;99.90;;;;;;5010477;28;20049;-34
2023/12/03 03:48:39;;;;;;;84.03;32.60;;;0.70;99.90;;;;;;5010203;28;20050;-34
2023/12/03 03:51:06;;;;;;;75.65;32.70;;;0.70;99.90;;;;;;5010317;28;20085;-36
2023/12/03 03:53:32;;;;;;;100.05;28.33;;;0.70;99.90;;;;;;5008748;28;20467;-34
2023/12/03 03:55:58;;;;;;;79.93;32.05;;;0.70;99.90;;;;;;5007923;28;20046;-33
2023/12/03 03:58:23;;;;;;;81.45;30.58;;;0.70;99.90;;;;;;5006929;28;20056;-39
2023/12/03 04:00:49;;;;;;;89.82;27.58;;;0.70;99.90;;;;;;5006688;28;20074;-33
2023/12/03 04:03:15;;;;;;;86.15;34.10;;;0.70;99.90;;;;;;5008223;28;20131;-33
2023/12/03 04:05:42;;;;;;;98.07;35.13;;;0.70;99.90;;;;;;5010507;28;20108;-33
2023/12/03 04:08:07;;;;;;;95.95;31.58;;;0.70;99.90;;;;;;5005282;28;20050;-33
2023/12/03 04:10:33;;;;;;;88.03;30.25;;;0.80;99.90;;;;;;5007575;28;20072;-36
2023/12/03 04:12:58;;;;;;;81.82;30.20;;;0.80;99.90;;;;;;4997670;28;20138;-33
2023/12/03 04:15:24;;;;;;;92.18;32.83;;;0.80;99.90;;;;;;5005649;28;20037;-33
2023/12/03 04:17:50;;;;;;;92.70;33.80;;;0.80;99.90;;;;;;5010875;28;20613;-40
2023/12/03 04:20:15;;;;;;;104.70;34.03;;;0.80;99.90;;;;;;5007661;28;20046;-33
2023/12/03 04:22:41;;;;;;;128.15;37.83;;;0.80;99.90;;;;;;5009637;28;20049;-33
2023/12/03 04:25:07;;;;;;;133.75;35.20;;;0.80;99.90;;;;;;5003860;28;20459;-34
2023/12/03 04:27:33;;;;;;;87.80;30.40;;;0.80;99.90;;;;;;5005572;28;20069;-37
2023/12/03 04:29:58;;;;;;;113.22;34.50;;;0.90;99.90;;;;;;5004587;28;20503;-33
2023/12/03 04:32:24;;;;;;;70.82;26.38;;;0.80;99.90;;;;;;5007246;28;20078;-33
2023/12/03 04:34:50;;;;;;;65.53;25.45;;;0.90;99.90;;;;;;5003150;28;20481;-34
2023/12/03 04:37:16;;;;;;;59.45;25.65;;;0.90;99.90;;;;;;5006150;28;20344;-33
2023/12/03 04:39:45;;;;;;;73.57;26.35;;;0.90;99.90;;;;;;5005710;28;20046;-33
2023/12/03 04:42:11;;;;;;;74.88;25.92;;;0.90;99.90;;;;;;5004513;28;20049;-33
2023/12/03 04:44:36;;;;;;;92.57;27.23;;;0.90;99.90;;;;;;5007669;28;20527;-33
2023/12/03 04:47:02;;;;;;;74.40;24.40;;;0.90;99.90;;;;;;5009011;28;20053;-35
2023/12/03 04:49:28;;;;;;;75.70;25.23;;;0.90;99.90;;;;;;5022792;28;20050;-32
2023/12/03 04:51:53;;;;;;;82.40;25.27;;;0.90;99.90;;;;;;5012776;28;20054;-38
2023/12/03 04:54:19;;;;;;;68.13;24.00;;;0.90;99.90;;;;;;5011707;28;20062;-33
2023/12/03 04:56:45;;;;;;;97.53;26.45;;;0.90;99.90;;;;;;5008689;28;20799;-38
2023/12/03 04:59:10;;;;;;;79.68;26.98;;;0.90;99.90;;;;;;5009384;28;20400;-32
2023/12/03 05:01:36;;;;;;;85.95;26.27;;;0.90;99.90;;;;;;5010293;28;20054;-33
2023/12/03 05:04:01;;;;;;;90.60;26.77;;;0.90;99.90;;;;;;5007048;28;20526;-39
2023/12/03 05:06:27;;;;;;;89.43;25.05;;;0.90;99.90;;;;;;5008726;28;20060;-33
2023/12/03 05:08:53;;;;;;;88.65;26.50;;;0.90;99.90;;;;;;5008299;28;20577;-33
2023/12/03 05:11:18;;;;;;;105.88;28.33;;;0.90;99.90;;;;;;5009164;28;20050;-32
2023/12/03 05:13:44;;;;;;;91.32;28.38;;;0.90;99.90;;;;;;5009752;28;20080;-33
2023/12/03 05:16:10;;;;;;;91.18;26.65;;;1.00;99.90;;;;;;5002840;28;20414;-33
2023/12/03 05:18:36;;;;;;;87.47;25.77;;;1.00;99.90;;;;;;5007375;28;20060;-33
2023/12/03 05:21:03;;;;;;;96.57;24.90;;;1.00;99.90;;;;;;5011818;28;20050;-33
2023/12/03 05:23:29;;;;;;;79.25;25.52;;;1.00;99.90;;;;;;5014168;28;20104;-33
2023/12/03 05:25:57;;;;;;;89.93;26.35;;;1.00;99.90;;;;;;5010341;28;20073;-33
2023/12/03 05:28:23;;;;;;;80.20;25.50;;;1.00;99.90;;;;;;5005564;28;20496;-32
2023/12/03 05:30:49;;;;;;;76.97;23.65;;;1.00;99.90;;;;;;5007340;28;20054;-33
2023/12/03 05:33:15;;;;;;;76.47;23.67;;;1.00;99.90;;;;;;5009433;28;20050;-32
2023/12/03 05:35:41;;;;;;;80.28;24.02;;;1.00;99.90;;;;;;5005897;28;20057;-33
2023/12/03 05:38:07;;;;;;;96.15;26.13;;;1.00;99.90;;;;;;5010410;28;20049;-32
2023/12/03 05:40:33;;;;;;;81.63;25.60;;;1.00;99.90;;;;;;5008382;28;20416;-33
2023/12/03 05:42:59;;;;;;;80.30;23.98;;;1.00;99.90;;;;;;5010061;28;20077;-33
2023/12/03 05:45:25;;;;;;;70.38;25.45;;;1.10;99.90;;;;;;5009252;28;20070;-34
2023/12/03 05:47:51;;;;;;;81.30;25.98;;;1.00;99.90;;;;;;5013047;28;20112;-33
2023/12/03 05:50:16;;;;;;;69.65;22.95;;;1.10;99.90;;;;;;5010224;28;20086;-33
2023/12/03 05:52:42;;;;;;;72.07;24.20;;;1.10;99.90;;;;;;5009979;28;20125;-33
2023/12/03 05:55:08;;;;;;;67.68;25.95;;;1.10;99.90;;;;;;5006335;28;20100;-33
2023/12/03 05:57:33;;;;;;;64.53;23.15;;;1.10;99.90;;;;;;5008438;28;20130;-32
2023/12/03 05:59:59;;;;;;;75.60;24.23;;;1.10;99.90;;;;;;5013582;28;20073;-33
2023/12/03 06:02:25;;;;;;;65.65;22.70;;;1.10;99.90;;;;;;5010508;28;20483;-33
2023/12/03 06:04:50;;;;;;;77.07;25.15;;;1.10;99.90;;;;;;5007981;28;20523;-32
2023/12/03 06:07:16;;;;;;;70.38;24.50;;;1.10;99.90;;;;;;5007729;28;20080;-33
2023/12/03 06:09:43;;;;;;;72.57;23.35;;;1.20;99.90;;;;;;5010246;28;20472;-33
2023/12/03 06:12:08;;;;;;;65.65;23.58;;;1.20;99.90;;;;;;5014677;28;20064;-33
2023/12/03 06:14:34;;;;;;;57.72;21.15;;;1.20;99.90;;;;;;5007213;28;20129;-33
2023/12/03 06:17:00;;;;;;;63.92;22.83;;;1.20;99.90;;;;;;5007292;28;20465;-49
2023/12/03 06:19:26;;;;;;;60.40;22.50;;;1.20;99.90;;;;;;5013733;28;20125;-32
2023/12/03 06:21:51;;;;;;;58.72;21.67;;;1.20;99.90;;;;;;5009110;28;20050;-33
2023/12/03 06:24:17;;;;;;;57.80;24.92;;;1.20;99.90;;;;;;5008597;28;20061;-33
2023/12/03 06:26:43;;;;;;;53.75;20.42;;;1.20;99.90;;;;;;5006201;28;20049;-33
2023/12/03 06:29:08;;;;;;;59.38;23.17;;;1.30;99.90;;;;;;5003875;28;20499;-32
2023/12/03 06:31:34;;;;;;;69.38;24.65;;;1.30;99.90;;;;;;5005613;28;20054;-33
2023/12/03 06:34:00;;;;;;;58.72;23.35;;;1.30;99.90;;;;;;5006877;28;20057;-33
2023/12/03 06:36:26;;;;;;;61.75;25.52;;;1.30;99.90;;;;;;5008068;28;20053;-33
2023/12/03 06:38:53;;;;;;;61.72;24.13;;;1.30;99.90;;;;;;5007657;28;20046;-32
2023/12/03 06:41:18;;;;;;;51.15;20.90;;;1.30;99.90;;;;;;5010323;28;20045;-33
2023/12/03 06:43:44;;;;;;;66.05;22.90;;;1.30;99.90;;;;;;5007662;28;20104;-33
2023/12/03 06:46:10;;;;;;;45.08;18.45;;;1.30;99.90;;;;;;5010857;28;20428;-33
2023/12/03 06:48:35;;;;;;;66.00;22.85;;;1.40;99.90;;;;;;5006994;28;20058;-33
2023/12/03 06:51:01;;;;;;;63.95;24.23;;;1.40;99.90;;;;;;5005589;28;20058;-33
2023/12/03 06:53:26;;;;;;;60.58;23.13;;;1.40;99.90;;;;;;5007549;28;20083;-33
2023/12/03 06:55:52;;;;;;;49.58;19.77;;;1.40;99.90;;;;;;5006621;28;20049;-34
2023/12/03 06:58:18;;;;;;;52.60;22.25;;;1.40;99.90;;;;;;5009094;28;20058;-33
2023/12/03 07:00:44;;;;;;;52.47;21.70;;;1.40;99.90;;;;;;5007315;28;20053;-33
2023/12/03 07:03:09;;;;;;;54.08;22.30;;;1.40;99.90;;;;;;5008375;28;20467;-33
2023/12/03 07:05:35;;;;;;;50.50;22.88;;;1.40;99.90;;;;;;5004307;28;20050;-33
2023/12/03 07:08:01;;;;;;;51.00;22.60;;;1.40;99.90;;;;;;5007270;28;20129;-33
2023/12/03 07:10:26;;;;;;;57.30;25.10;;;1.40;99.90;;;;;;5009666;28;20096;-34
2023/12/03 07:12:52;;;;;;;46.40;22.70;;;1.40;99.90;;;;;;5007657;28;20487;-33
2023/12/03 07:15:18;;;;;;;61.65;25.08;;;1.40;99.90;;;;;;5006015;28;20034;-33
2023/12/03 07:17:44;;;;;;;54.17;26.25;;;1.40;99.90;;;;;;5004531;28;20049;-39
2023/12/03 07:20:10;;;;;;;54.40;25.63;;;1.40;99.90;;;;;;5007840;28;20659;-33
2023/12/03 07:22:36;;;;;;;56.40;25.65;;;1.40;99.90;;;;;;5007870;28;20480;-33
2023/12/03 07:25:04;;;;;;;60.38;26.63;;;1.50;99.90;;;;;;5007611;28;20057;-34
2023/12/03 07:27:30;;;;;;;52.30;25.13;;;1.40;99.90;;;;;;5008302;28;20045;-33
2023/12/03 07:29:56;;;;;;;62.75;26.25;;;1.50;99.90;;;;;;5006816;28;20054;-36
2023/12/03 07:32:25;;;;;;;54.95;24.88;;;1.50;99.90;;;;;;5010004;28;20181;-33
2023/12/03 07:34:51;;;;;;;52.42;23.30;;;1.40;99.90;;;;;;5005146;28;20107;-33
2023/12/03 07:37:17;;;;;;;51.90;25.15;;;1.40;99.90;;;;;;5009584;28;20235;-34
2023/12/03 07:39:43;;;;;;;53.22;26.02;;;1.30;99.90;;;;;;5007361;28;20499;-40
2023/12/03 07:42:08;;;;;;;47.45;22.38;;;1.30;99.90;;;;;;5012449;28;20061;-34
2023/12/03 07:44:34;;;;;;;49.95;25.60;;;1.20;99.90;;;;;;5003204;28;20455;-34
2023/12/03 07:47:00;;;;;;;47.88;27.50;;;1.20;99.90;;;;;;5006619;28;20506;-34
2023/12/03 07:49:26;;;;;;;47.03;33.05;;;1.10;99.90;;;;;;5010165;28;20053;-38
2023/12/03 07:51:51;;;;;;;47.25;28.63;;;1.00;99.90;;;;;;5007142;28;20065;-33
2023/12/03 07:54:17;;;;;;;48.63;31.17;;;1.00;99.90;;;;;;5011484;28;20049;-33
2023/12/03 07:56:43;;;;;;;43.53;20.40;;;1.00;99.90;;;;;;4999178;28;20061;-33
2023/12/03 07:59:09;;;;;;;55.75;33.83;;;1.00;99.90;;;;;;5005819;28;20514;-33
2023/12/03 08:01:35;;;;;;;48.78;34.35;;;1.00;99.90;;;;;;5007739;28;20071;-33
2023/12/03 08:04:03;;;;;;;48.55;29.00;;;1.00;99.90;;;;;;5002688;28;20057;-33
2023/12/03 08:06:29;;;;;;;57.15;38.47;;;1.00;99.90;;;;;;5005276;28;20061;-34
2023/12/03 08:08:57;;;;;;;58.70;38.55;;;0.90;99.90;;;;;;5005336;28;20049;-34
2023/12/03 08:11:23;;;;;;;49.97;37.33;;;0.90;99.90;;;;;;5008117;28;20045;-34
2023/12/03 08:13:49;;;;;;;49.70;35.92;;;0.90;99.90;;;;;;5005916;28;20557;-33
2023/12/03 08:16:15;;;;;;;49.05;34.03;;;0.90;99.90;;;;;;5005970;28;20044;-32
2023/12/03 08:18:42;;;;;;;56.78;35.85;;;0.90;99.90;;;;;;5008426;28;20100;-34
2023/12/03 08:21:09;;;;;;;47.25;30.27;;;1.00;99.90;;;;;;5008343;28;20060;-33
2023/12/03 08:23:36;;;;;;;50.65;31.35;;;1.00;99.90;;;;;;5007468;28;20053;-34
2023/12/03 08:26:03;;;;;;;53.65;37.55;;;1.00;99.90;;;;;;5004480;28;20091;-32
2023/12/03 08:28:29;;;;;;;49.08;31.42;;;1.10;99.90;;;;;;5005025;28;20548;-33
2023/12/03 08:30:54;;;;;;;49.65;31.75;;;1.10;99.90;;;;;;5005609;28;20195;-33
2023/12/03 08:33:20;;;;;;;51.13;36.15;;;1.20;99.90;;;;;;5005818;28;20411;-33
2023/12/03 08:35:46;;;;;;;46.22;34.58;;;1.20;99.90;;;;;;5006555;28;20056;-33
2023/12/03 08:38:12;;;;;;;48.38;33.75;;;1.30;99.90;;;;;;5009170;28;20057;-33
2023/12/03 08:40:38;;;;;;;50.17;32.70;;;1.40;99.90;;;;;;5008114;28;20061;-41
2023/12/03 08:43:03;;;;;;;44.90;27.63;;;1.40;99.90;;;;;;5004369;28;20070;-33
2023/12/03 08:45:32;;;;;;;44.17;28.85;;;1.40;99.90;;;;;;5008307;28;20092;-34
2023/12/03 08:47:59;;;;;;;43.28;30.05;;;1.40;99.90;;;;;;5006280;28;20092;-33
2023/12/03 08:50:27;;;;;;;45.95;30.88;;;1.40;99.90;;;;;;5004471;28;20108;-34
2023/12/03 08:52:53;;;;;;;41.92;33.20;;;1.30;99.90;;;;;;5005706;28;20050;-33
2023/12/03 08:55:19;;;;;;;39.85;31.73;;;1.30;99.90;;;;;;5002168;28;20096;-33
2023/12/03 08:57:44;;;;;;;46.35;34.50;;;1.20;99.90;;;;;;5003697;28;20084;-33
2023/12/03 09:00:12;;;;;;;43.25;33.03;;;1.10;99.90;;;;;;5004573;28;20057;-33
2023/12/03 09:02:38;;;;;;;47.13;36.58;;;1.10;99.90;;;;;;5003130;28;20114;-33
2023/12/03 09:05:06;;;;;;;45.63;38.50;;;1.10;99.90;;;;;;5007070;28;20065;-44
2023/12/03 09:07:32;;;;;;;42.08;35.75;;;1.10;99.90;;;;;;5004481;28;20048;-43
2023/12/03 09:09:58;;;;;;;42.42;35.05;;;1.10;99.90;;;;;;5008624;28;20046;-33
2023/12/03 09:12:24;;;;;;;41.10;32.65;;;1.10;99.90;;;;;;5005652;28;20045;-34
2023/12/03 09:14:49;;;;;;;40.55;33.97;;;1.10;99.90;;;;;;5008025;28;20049;-33
2023/12/03 09:17:15;;;;;;;39.58;34.10;;;1.10;99.90;;;;;;5006705;28;20499;-33
2023/12/03 09:19:41;;;;;;;46.83;35.70;;;1.10;99.90;;;;;;5006532;28;20045;-34
2023/12/03 09:22:06;;;;;;;41.65;33.00;;;1.10;99.90;;;;;;5006131;28;20054;-32
2023/12/03 09:24:32;;;;;;;38.50;29.92;;;1.10;99.90;;;;;;5008405;28;20049;-33
2023/12/03 09:26:58;;;;;;;37.20;30.75;;;1.10;99.90;;;;;;5006966;28;20402;-32
2023/12/03 09:29:23;;;;;;;39.13;29.52;;;1.20;99.90;;;;;;4996481;28;20475;-35
2023/12/03 09:31:49;;;;;;;39.25;29.33;;;1.20;99.90;;;;;;5013029;28;20500;-41
2023/12/03 09:34:15;;;;;;;36.78;27.98;;;1.20;99.90;;;;;;5010647;28;20068;-33
2023/12/03 09:36:40;;;;;;;35.15;29.42;;;1.30;99.90;;;;;;5010272;28;20045;-33
2023/12/03 09:39:06;;;;;;;37.78;28.77;;;1.30;99.90;;;;;;5009690;28;20049;-34
2023/12/03 09:41:33;;;;;;;36.10;29.73;;;1.20;99.90;;;;;;5006764;28;20086;-51
2023/12/03 09:44:03;;;;;;;37.45;30.08;;;1.20;99.90;;;;;;5008013;28;20049;-34
2023/12/03 09:46:32;;;;;;;35.85;27.85;;;1.20;99.90;;;;;;5002876;28;20057;-33
2023/12/03 09:49:03;;;;;;;36.38;27.60;;;1.20;99.90;;;;;;5007822;28;20488;-34
2023/12/03 09:51:30;;;;;;;33.28;26.63;;;1.30;99.90;;;;;;5009714;28;20058;-34
2023/12/03 09:53:58;;;;;;;33.80;26.27;;;1.30;99.90;;;;;;5005472;28;20058;-33
2023/12/03 09:56:27;;;;;;;34.55;24.65;;;1.30;99.90;;;;;;4998397;28;20058;-33
2023/12/03 09:58:53;;;;;;;33.85;24.80;;;1.30;99.90;;;;;;5007582;28;20063;-34
2023/12/03 10:01:22;;;;;;;33.38;25.92;;;1.30;99.90;;;;;;5007640;28;22297;-34
2023/12/03 10:03:51;;;;;;;33.47;26.48;;;1.30;99.90;;;;;;5006173;28;20081;-34
2023/12/03 10:06:21;;;;;;;37.13;27.65;;;1.30;99.90;;;;;;5006562;28;20054;-44
2023/12/03 10:08:48;;;;;;;34.35;27.08;;;1.30;99.90;;;;;;5004704;28;20120;-35
2023/12/03 10:11:17;;;;;;;30.67;25.27;;;1.30;99.90;;;;;;5006938;28;20057;-34
2023/12/03 10:13:43;;;;;;;34.72;27.75;;;1.30;99.90;;;;;;5006210;28;20054;-34
2023/12/03 10:16:14;;;;;;;36.53;27.90;;;1.20;99.90;;;;;;5008381;28;20052;-34
2023/12/03 10:18:39;;;;;;;39.00;31.60;;;1.20;99.90;;;;;;5008272;28;20050;-34
2023/12/03 10:21:08;;;;;;;35.08;26.77;;;1.20;99.90;;;;;;5007037;28;20045;-34
2023/12/03 10:23:38;;;;;;;34.28;27.48;;;1.20;99.90;;;;;;5005248;28;20488;-35
2023/12/03 10:26:10;;;;;;;32.53;24.88;;;1.20;99.90;;;;;;5011113;28;20046;-34
2023/12/03 10:28:36;;;;;;;42.50;28.23;;;1.20;99.90;;;;;;5005726;28;20061;-33
2023/12/03 10:31:02;;;;;;;39.78;29.30;;;1.20;99.90;;;;;;5005247;28;20056;-45
2023/12/03 10:33:27;;;;;;;45.85;32.00;;;1.30;99.90;;;;;;5007938;28;20085;-34
2023/12/03 10:36:02;;;;;;;51.08;31.27;;;1.30;99.90;;;;;;5006209;28;20059;-34
2023/12/03 10:38:36;;;;;;;46.95;31.67;;;1.30;99.90;;;;;;5003577;28;20054;-34
2023/12/03 10:41:04;;;;;;;38.47;27.73;;;1.30;99.90;;;;;;5006689;28;20480;-33
2023/12/03 10:43:30;;;;;;;48.00;34.92;;;1.40;99.90;;;;;;5007327;28;20075;-34
2023/12/03 10:45:56;;;;;;;45.35;33.75;;;1.40;99.90;;;;;;5006869;28;21370;-34
2023/12/03 10:48:24;;;;;;;47.03;40.72;;;1.50;99.90;;;;;;5006369;28;20042;-35
2023/12/03 10:50:52;;;;;;;42.63;33.05;;;1.60;99.90;;;;;;5009391;28;20518;-35
2023/12/03 10:53:18;;;;;;;49.80;37.85;;;1.60;99.90;;;;;;4999355;28;20046;-34
2023/12/03 10:55:44;;;;;;;44.20;34.63;;;1.70;99.90;;;;;;5008626;28;20085;-34
2023/12/03 10:58:14;;;;;;;50.40;36.80;;;1.90;99.90;;;;;;5005400;28;20488;-34
2023/12/03 11:00:43;;;;;;;42.35;30.95;;;2.00;99.90;;;;;;5001802;28;20055;-34
2023/12/03 11:03:49;;;;;;;43.92;25.83;;;2.20;99.90;;;;;;5007342;28;20487;-34
2023/12/03 11:06:17;;;;;;;35.65;23.05;;;2.40;99.90;;;;;;5003331;28;20496;-43
2023/12/03 11:08:45;;;;;;;36.75;23.80;;;2.50;99.90;;;;;;5009160;28;20053;-34
2023/12/03 11:11:13;;;;;;;39.33;30.10;;;2.50;99.90;;;;;;5012068;28;20064;-34
2023/12/03 11:13:41;;;;;;;35.65;31.20;;;2.60;99.90;;;;;;5003701;28;20140;-34
2023/12/03 11:16:09;;;;;;;35.58;26.40;;;2.60;99.90;;;;;;5008687;28;20084;-34
2023/12/03 11:18:37;;;;;;;31.70;22.20;;;2.80;99.90;;;;;;5003861;28;20137;-34
2023/12/03 11:21:15;;;;;;;28.77;19.48;;;2.90;99.90;;;;;;5010675;28;20144;-34
2023/12/03 11:24:02;;;;;;;31.52;19.65;;;3.10;99.90;;;;;;5004055;28;20129;-34
2023/12/03 11:26:28;;;;;;;27.80;19.95;;;3.40;99.90;;;;;;5003966;28;20050;-34
2023/12/03 11:28:59;;;;;;;32.53;23.20;;;3.70;99.90;;;;;;5008795;28;20071;-34
2023/12/03 11:31:25;;;;;;;28.95;22.35;;;3.90;99.90;;;;;;5003880;28;20695;-35
2023/12/03 11:33:59;;;;;;;24.83;16.83;;;4.00;99.90;;;;;;5005182;28;20057;-35
2023/12/03 11:36:49;;;;;;;26.23;17.95;;;4.00;99.90;;;;;;5007172;28;20053;-36
2023/12/03 11:39:15;;;;;;;23.50;16.08;;;4.30;99.90;;;;;;5003873;28;20045;-35
2023/12/03 11:41:44;;;;;;;23.88;17.40;;;4.50;99.90;;;;;;5007155;28;20057;-34
2023/12/03 11:44:23;;;;;;;20.98;15.82;;;4.70;99.90;;;;;;5006652;28;20070;-36
2023/12/03 11:47:00;;;;;;;24.05;14.35;;;4.90;99.90;;;;;;5010842;28;20058;-34
2023/12/03 11:49:27;;;;;;;22.38;13.35;;;5.00;99.90;;;;;;4999558;28;20062;-34
2023/12/03 11:51:53;;;;;;;18.98;12.88;;;5.10;99.90;;;;;;5002993;28;20500;-36
2023/12/03 11:54:24;;;;;;;19.95;12.63;;;5.20;99.90;;;;;;5004911;28;20140;-36
2023/12/03 11:56:50;;;;;;;20.58;12.68;;;5.30;99.90;;;;;;5010608;28;20495;-35
2023/12/03 11:59:16;;;;;;;18.98;12.30;;;5.50;99.90;;;;;;5002459;28;20074;-36
2023/12/03 12:01:41;;;;;;;18.70;12.07;;;5.70;99.90;;;;;;4990550;28;20041;-36
2023/12/03 12:04:08;;;;;;;17.75;11.68;;;5.80;99.90;;;;;;5007451;28;20042;-35
2023/12/03 12:06:34;;;;;;;16.40;10.80;;;5.80;99.90;;;;;;5009818;28;20092;-34
2023/12/03 12:09:10;;;;;;;17.73;11.65;;;5.80;99.90;;;;;;5005552;28;20049;-34
2023/12/03 12:11:36;;;;;;;18.73;11.20;;;5.70;99.90;;;;;;5006762;28;20132;-35
2023/12/03 12:14:02;;;;;;;16.90;11.18;;;5.70;99.90;;;;;;5010251;28;20062;-46
2023/12/03 12:16:29;;;;;;;18.00;11.32;;;5.60;99.90;;;;;;5006105;28;20057;-34
2023/12/03 12:18:55;;;;;;;18.70;11.57;;;5.60;99.90;;;;;;5007589;28;20053;-35
2023/12/03 12:21:21;;;;;;;17.75;11.07;;;5.60;99.90;;;;;;4996780;28;20073;-35
2023/12/03 12:23:47;;;;;;;16.85;11.20;;;5.70;99.90;;;;;;5008601;28;20077;-36
2023/12/03 12:26:13;;;;;;;16.38;10.60;;;5.70;99.90;;;;;;5005800;28;20136;-34
2023/12/03 12:28:39;;;;;;;16.90;10.52;;;5.60;99.90;;;;;;5005250;28;20045;-35
2023/12/03 12:31:05;;;;;;;15.82;10.15;;;5.60;99.90;;;;;;5004241;28;20452;-35